sensor_id;sensor_type;location;lat;lon;timestamp;temperature;humidity
13898;DHT22;7019;50.766;4.474;2023-06-14T00:01:41;16.50;99.90
13898;DHT22;7019;50.766;4.474;2023-06-14T00:04:11;16.40;99.90
13898;DHT22;7019;50.766;4.474;2023-06-14T00:06:38;16.40;99.90
13898;DHT22;7019;50.766;4.474;2023-06-14T00:09:07;16.30;99.90
13898;DHT22;7019;50.766;4.474;2023-06-14T00:11:35;16.30;99.90
13898;DHT22;7019;50.766;4.474;2023-06-14T00:14:04;16.30;99.90
13898;DHT22;7019;50.766;4.474;2023-06-14T00:16:32;16.20;99.90
13898;DHT22;7019;50.766;4.474;2023-06-14T00:19:00;16.20;99.90
13898;DHT22;7019;50.766;4.474;2023-06-14T00:21:29;16.20;99.90
13898;DHT22;7019;50.766;4.474;2023-06-14T00:23:56;16.20;99.90
13898;DHT22;7019;50.766;4.474;2023-06-14T00:26:24;16.20;99.90
13898;DHT22;7019;50.766;4.474;2023-06-14T00:28:52;16.20;99.90
13898;DHT22;7019;50.766;4.474;2023-06-14T00:31:20;16.20;99.90
13898;DHT22;7019;50.766;4.474;2023-06-14T00:33:47;16.20;99.90
13898;DHT22;7019;50.766;4.474;2023-06-14T00:36:14;16.10;99.90
13898;DHT22;7019;50.766;4.474;2023-06-14T00:38:41;16.10;99.90
13898;DHT22;7019;50.766;4.474;2023-06-14T00:41:08;16.00;99.90
13898;DHT22;7019;50.766;4.474;2023-06-14T00:43:36;16.00;99.90
13898;DHT22;7019;50.766;4.474;2023-06-14T00:46:03;16.00;99.90
13898;DHT22;7019;50.766;4.474;2023-06-14T00:48:31;16.00;99.90
13898;DHT22;7019;50.766;4.474;2023-06-14T00:51:00;15.90;99.90
13898;DHT22;7019;50.766;4.474;2023-06-14T00:53:30;15.90;99.90
13898;DHT22;7019;50.766;4.474;2023-06-14T00:56:00;15.90;99.90
13898;DHT22;7019;50.766;4.474;2023-06-14T00:58:27;15.80;99.90
13898;DHT22;7019;50.766;4.474;2023-06-14T01:00:55;15.80;99.90
13898;DHT22;7019;50.766;4.474;2023-06-14T01:03:23;15.70;99.90
13898;DHT22;7019;50.766;4.474;2023-06-14T01:05:59;15.70;99.90
13898;DHT22;7019;50.766;4.474;2023-06-14T01:08:36;15.70;99.90
13898;DHT22;7019;50.766;4.474;2023-06-14T01:11:12;15.60;99.90
13898;DHT22;7019;50.766;4.474;2023-06-14T01:13:45;15.60;99.90
13898;DHT22;7019;50.766;4.474;2023-06-14T01:16:13;15.60;99.90
13898;DHT22;7019;50.766;4.474;2023-06-14T01:18:40;15.60;99.90
13898;DHT22;7019;50.766;4.474;2023-06-14T01:21:23;15.50;99.90
13898;DHT22;7019;50.766;4.474;2023-06-14T01:23:52;15.50;99.90
13898;DHT22;7019;50.766;4.474;2023-06-14T01:26:20;15.50;99.90
13898;DHT22;7019;50.766;4.474;2023-06-14T01:28:49;15.40;99.90
13898;DHT22;7019;50.766;4.474;2023-06-14T01:31:20;15.40;99.90
13898;DHT22;7019;50.766;4.474;2023-06-14T01:33:49;15.40;99.90
13898;DHT22;7019;50.766;4.474;2023-06-14T01:36:17;15.40;99.90
13898;DHT22;7019;50.766;4.474;2023-06-14T01:38:46;15.40;99.90
13898;DHT22;7019;50.766;4.474;2023-06-14T01:41:16;15.30;99.90
13898;DHT22;7019;50.766;4.474;2023-06-14T01:43:43;15.30;99.90
13898;DHT22;7019;50.766;4.474;2023-06-14T01:46:11;15.30;99.90
13898;DHT22;7019;50.766;4.474;2023-06-14T01:48:40;15.30;99.90
13898;DHT22;7019;50.766;4.474;2023-06-14T01:51:07;15.30;99.90
13898;DHT22;7019;50.766;4.474;2023-06-14T01:53:34;15.30;99.90
13898;DHT22;7019;50.766;4.474;2023-06-14T01:56:01;15.30;99.90
13898;DHT22;7019;50.766;4.474;2023-06-14T01:58:30;15.30;99.90
13898;DHT22;7019;50.766;4.474;2023-06-14T02:00:58;15.20;99.90
13898;DHT22;7019;50.766;4.474;2023-06-14T02:03:26;15.10;99.90
13898;DHT22;7019;50.766;4.474;2023-06-14T02:05:53;15.10;99.90
13898;DHT22;7019;50.766;4.474;2023-06-14T02:08:21;15.10;99.90
13898;DHT22;7019;50.766;4.474;2023-06-14T02:10:48;15.10;99.90
13898;DHT22;7019;50.766;4.474;2023-06-14T02:13:15;15.10;99.90
13898;DHT22;7019;50.766;4.474;2023-06-14T02:15:44;15.10;99.90
13898;DHT22;7019;50.766;4.474;2023-06-14T02:18:12;15.00;99.90
13898;DHT22;7019;50.766;4.474;2023-06-14T02:20:39;14.90;99.90
13898;DHT22;7019;50.766;4.474;2023-06-14T02:23:06;14.90;99.90
13898;DHT22;7019;50.766;4.474;2023-06-14T02:25:34;14.90;99.90
13898;DHT22;7019;50.766;4.474;2023-06-14T02:28:01;14.90;99.90
13898;DHT22;7019;50.766;4.474;2023-06-14T02:30:28;14.80;99.90
13898;DHT22;7019;50.766;4.474;2023-06-14T02:32:58;14.70;99.90
13898;DHT22;7019;50.766;4.474;2023-06-14T02:35:27;14.70;99.90
13898;DHT22;7019;50.766;4.474;2023-06-14T02:37:54;14.70;99.90
13898;DHT22;7019;50.766;4.474;2023-06-14T02:40:21;14.70;99.90
13898;DHT22;7019;50.766;4.474;2023-06-14T02:42:49;14.60;99.90
13898;DHT22;7019;50.766;4.474;2023-06-14T02:45:17;14.60;99.90
13898;DHT22;7019;50.766;4.474;2023-06-14T02:47:44;14.50;99.90
13898;DHT22;7019;50.766;4.474;2023-06-14T02:50:13;14.50;99.90
13898;DHT22;7019;50.766;4.474;2023-06-14T02:52:41;14.60;99.90
13898;DHT22;7019;50.766;4.474;2023-06-14T02:55:10;14.60;99.90
13898;DHT22;7019;50.766;4.474;2023-06-14T02:57:37;14.50;99.90
13898;DHT22;7019;50.766;4.474;2023-06-14T03:00:06;14.40;99.90
13898;DHT22;7019;50.766;4.474;2023-06-14T03:02:35;14.50;99.90
13898;DHT22;7019;50.766;4.474;2023-06-14T03:05:03;14.50;99.90
13898;DHT22;7019;50.766;4.474;2023-06-14T03:07:33;14.40;99.90
13898;DHT22;7019;50.766;4.474;2023-06-14T03:10:00;14.40;99.90
13898;DHT22;7019;50.766;4.474;2023-06-14T03:12:28;14.40;99.90
13898;DHT22;7019;50.766;4.474;2023-06-14T03:14:56;14.40;99.90
13898;DHT22;7019;50.766;4.474;2023-06-14T03:17:27;14.30;99.90
13898;DHT22;7019;50.766;4.474;2023-06-14T03:19:55;14.30;99.90
13898;DHT22;7019;50.766;4.474;2023-06-14T03:22:22;14.30;99.90
13898;DHT22;7019;50.766;4.474;2023-06-14T03:24:52;14.30;99.90
13898;DHT22;7019;50.766;4.474;2023-06-14T03:27:21;14.20;99.90
13898;DHT22;7019;50.766;4.474;2023-06-14T03:29:48;14.20;99.90
13898;DHT22;7019;50.766;4.474;2023-06-14T03:32:15;14.30;99.90
13898;DHT22;7019;50.766;4.474;2023-06-14T03:34:42;14.30;99.90
13898;DHT22;7019;50.766;4.474;2023-06-14T03:37:10;14.30;99.90
13898;DHT22;7019;50.766;4.474;2023-06-14T03:39:37;14.30;99.90
13898;DHT22;7019;50.766;4.474;2023-06-14T03:42:13;14.30;99.90
13898;DHT22;7019;50.766;4.474;2023-06-14T03:44:40;14.30;99.90
13898;DHT22;7019;50.766;4.474;2023-06-14T03:47:07;14.40;99.90
13898;DHT22;7019;50.766;4.474;2023-06-14T03:49:35;14.40;99.90
13898;DHT22;7019;50.766;4.474;2023-06-14T03:52:03;14.40;99.90
13898;DHT22;7019;50.766;4.474;2023-06-14T03:54:30;14.40;99.90
13898;DHT22;7019;50.766;4.474;2023-06-14T03:56:58;14.40;99.90
13898;DHT22;7019;50.766;4.474;2023-06-14T03:59:27;14.40;99.90
13898;DHT22;7019;50.766;4.474;2023-06-14T04:01:54;14.40;99.90
13898;DHT22;7019;50.766;4.474;2023-06-14T04:04:21;14.40;99.90
13898;DHT22;7019;50.766;4.474;2023-06-14T04:06:55;14.40;99.90
13898;DHT22;7019;50.766;4.474;2023-06-14T04:09:23;14.40;99.90
13898;DHT22;7019;50.766;4.474;2023-06-14T04:11:50;14.40;99.90
13898;DHT22;7019;50.766;4.474;2023-06-14T04:14:18;14.40;99.90
13898;DHT22;7019;50.766;4.474;2023-06-14T04:16:47;14.40;99.90
13898;DHT22;7019;50.766;4.474;2023-06-14T04:19:15;14.50;99.90
13898;DHT22;7019;50.766;4.474;2023-06-14T04:21:42;14.60;99.90
13898;DHT22;7019;50.766;4.474;2023-06-14T04:24:09;14.60;99.90
13898;DHT22;7019;50.766;4.474;2023-06-14T04:26:39;14.60;99.90
13898;DHT22;7019;50.766;4.474;2023-06-14T04:29:06;14.60;99.90
13898;DHT22;7019;50.766;4.474;2023-06-14T04:31:33;14.60;99.90
13898;DHT22;7019;50.766;4.474;2023-06-14T04:34:04;14.70;99.90
13898;DHT22;7019;50.766;4.474;2023-06-14T04:36:32;14.80;99.90
13898;DHT22;7019;50.766;4.474;2023-06-14T04:39:02;14.80;99.90
13898;DHT22;7019;50.766;4.474;2023-06-14T04:41:30;14.90;99.90
13898;DHT22;7019;50.766;4.474;2023-06-14T04:43:57;15.00;99.90
13898;DHT22;7019;50.766;4.474;2023-06-14T04:46:27;15.00;99.90
13898;DHT22;7019;50.766;4.474;2023-06-14T04:48:54;15.10;99.90
13898;DHT22;7019;50.766;4.474;2023-06-14T04:51:23;15.10;99.90
13898;DHT22;7019;50.766;4.474;2023-06-14T04:53:55;15.20;99.90
13898;DHT22;7019;50.766;4.474;2023-06-14T04:56:24;15.20;99.90
13898;DHT22;7019;50.766;4.474;2023-06-14T04:58:51;15.20;99.90
13898;DHT22;7019;50.766;4.474;2023-06-14T05:01:20;15.30;99.90
13898;DHT22;7019;50.766;4.474;2023-06-14T05:03:48;15.30;99.90
13898;DHT22;7019;50.766;4.474;2023-06-14T05:06:16;15.40;99.90
13898;DHT22;7019;50.766;4.474;2023-06-14T05:08:44;15.50;99.90
13898;DHT22;7019;50.766;4.474;2023-06-14T05:11:11;15.50;99.90
13898;DHT22;7019;50.766;4.474;2023-06-14T05:13:38;15.70;99.90
13898;DHT22;7019;50.766;4.474;2023-06-14T05:16:06;15.70;99.90
13898;DHT22;7019;50.766;4.474;2023-06-14T05:18:33;15.80;99.90
13898;DHT22;7019;50.766;4.474;2023-06-14T05:21:01;16.00;99.90
13898;DHT22;7019;50.766;4.474;2023-06-14T05:23:29;16.10;99.90
13898;DHT22;7019;50.766;4.474;2023-06-14T05:25:57;16.30;99.90
13898;DHT22;7019;50.766;4.474;2023-06-14T05:28:25;16.50;99.90
13898;DHT22;7019;50.766;4.474;2023-06-14T05:30:52;16.80;99.90
13898;DHT22;7019;50.766;4.474;2023-06-14T05:33:19;17.10;99.90
13898;DHT22;7019;50.766;4.474;2023-06-14T05:35:46;17.50;99.90
13898;DHT22;7019;50.766;4.474;2023-06-14T05:38:13;18.00;99.90
13898;DHT22;7019;50.766;4.474;2023-06-14T05:40:40;18.60;99.90
13898;DHT22;7019;50.766;4.474;2023-06-14T05:43:09;19.20;99.00
13898;DHT22;7019;50.766;4.474;2023-06-14T05:45:36;19.70;99.50
13898;DHT22;7019;50.766;4.474;2023-06-14T05:48:03;20.20;97.70
13898;DHT22;7019;50.766;4.474;2023-06-14T05:50:30;20.50;97.50
13898;DHT22;7019;50.766;4.474;2023-06-14T05:52:57;20.90;96.40
13898;DHT22;7019;50.766;4.474;2023-06-14T05:55:25;21.10;96.50
13898;DHT22;7019;50.766;4.474;2023-06-14T05:57:52;21.40;95.00
13898;DHT22;7019;50.766;4.474;2023-06-14T06:00:21;21.80;94.00
13898;DHT22;7019;50.766;4.474;2023-06-14T06:02:48;22.10;93.90
13898;DHT22;7019;50.766;4.474;2023-06-14T06:05:15;22.40;93.50
13898;DHT22;7019;50.766;4.474;2023-06-14T06:07:42;22.70;92.60
13898;DHT22;7019;50.766;4.474;2023-06-14T06:10:11;22.80;93.00
13898;DHT22;7019;50.766;4.474;2023-06-14T06:12:38;23.00;92.40
13898;DHT22;7019;50.766;4.474;2023-06-14T06:15:06;23.20;92.00
13898;DHT22;7019;50.766;4.474;2023-06-14T06:17:34;23.50;91.40
13898;DHT22;7019;50.766;4.474;2023-06-14T06:20:02;23.80;91.30
13898;DHT22;7019;50.766;4.474;2023-06-14T06:22:31;24.00;90.70
13898;DHT22;7019;50.766;4.474;2023-06-14T06:24:58;24.20;90.20
13898;DHT22;7019;50.766;4.474;2023-06-14T06:27:25;24.50;90.90
13898;DHT22;7019;50.766;4.474;2023-06-14T06:29:52;24.60;90.00
13898;DHT22;7019;50.766;4.474;2023-06-14T06:32:19;24.80;90.00
13898;DHT22;7019;50.766;4.474;2023-06-14T06:34:48;25.00;90.20
13898;DHT22;7019;50.766;4.474;2023-06-14T06:37:16;25.20;90.30
13898;DHT22;7019;50.766;4.474;2023-06-14T06:39:42;25.80;88.50
13898;DHT22;7019;50.766;4.474;2023-06-14T06:42:10;25.40;88.40
13898;DHT22;7019;50.766;4.474;2023-06-14T06:44:37;25.60;88.80
13898;DHT22;7019;50.766;4.474;2023-06-14T06:47:05;26.00;88.00
13898;DHT22;7019;50.766;4.474;2023-06-14T06:49:32;26.10;88.30
13898;DHT22;7019;50.766;4.474;2023-06-14T06:52:01;26.50;86.30
13898;DHT22;7019;50.766;4.474;2023-06-14T06:54:28;27.00;85.20
13898;DHT22;7019;50.766;4.474;2023-06-14T06:56:56;26.90;83.50
13898;DHT22;7019;50.766;4.474;2023-06-14T06:59:23;27.20;84.50
13898;DHT22;7019;50.766;4.474;2023-06-14T07:01:50;26.90;84.70
13898;DHT22;7019;50.766;4.474;2023-06-14T07:04:17;27.20;84.50
13898;DHT22;7019;50.766;4.474;2023-06-14T07:06:46;27.50;83.20
13898;DHT22;7019;50.766;4.474;2023-06-14T07:09:15;27.50;82.60
13898;DHT22;7019;50.766;4.474;2023-06-14T07:11:43;27.80;82.20
13898;DHT22;7019;50.766;4.474;2023-06-14T07:14:11;27.90;80.20
13898;DHT22;7019;50.766;4.474;2023-06-14T07:16:38;27.50;80.70
13898;DHT22;7019;50.766;4.474;2023-06-14T07:19:06;27.30;82.60
13898;DHT22;7019;50.766;4.474;2023-06-14T07:21:34;27.40;81.70
13898;DHT22;7019;50.766;4.474;2023-06-14T07:24:04;27.20;82.60
13898;DHT22;7019;50.766;4.474;2023-06-14T07:26:33;27.50;82.30
13898;DHT22;7019;50.766;4.474;2023-06-14T07:29:01;27.90;81.40
13898;DHT22;7019;50.766;4.474;2023-06-14T07:31:28;28.20;80.70
13898;DHT22;7019;50.766;4.474;2023-06-14T07:33:55;28.20;79.60
13898;DHT22;7019;50.766;4.474;2023-06-14T07:36:22;28.40;79.70
13898;DHT22;7019;50.766;4.474;2023-06-14T07:38:49;28.60;79.10
13898;DHT22;7019;50.766;4.474;2023-06-14T07:41:16;28.50;79.80
13898;DHT22;7019;50.766;4.474;2023-06-14T07:43:45;28.50;79.70
13898;DHT22;7019;50.766;4.474;2023-06-14T07:46:12;28.60;79.50
13898;DHT22;7019;50.766;4.474;2023-06-14T07:48:39;28.90;80.40
13898;DHT22;7019;50.766;4.474;2023-06-14T07:51:06;29.30;77.70
13898;DHT22;7019;50.766;4.474;2023-06-14T07:53:33;29.60;79.00
13898;DHT22;7019;50.766;4.474;2023-06-14T07:56:00;29.80;79.50
13898;DHT22;7019;50.766;4.474;2023-06-14T07:58:28;30.10;77.00
13898;DHT22;7019;50.766;4.474;2023-06-14T08:00:56;30.40;76.00
13898;DHT22;7019;50.766;4.474;2023-06-14T08:03:23;30.40;75.70
13898;DHT22;7019;50.766;4.474;2023-06-14T08:05:50;30.90;74.10
13898;DHT22;7019;50.766;4.474;2023-06-14T08:08:17;31.30;74.30
13898;DHT22;7019;50.766;4.474;2023-06-14T08:10:44;31.30;73.30
13898;DHT22;7019;50.766;4.474;2023-06-14T08:13:12;31.10;74.70
13898;DHT22;7019;50.766;4.474;2023-06-14T08:15:39;31.20;74.60
13898;DHT22;7019;50.766;4.474;2023-06-14T08:18:07;31.00;74.00
13898;DHT22;7019;50.766;4.474;2023-06-14T08:20:34;31.70;74.50
13898;DHT22;7019;50.766;4.474;2023-06-14T08:23:02;32.00;74.00
13898;DHT22;7019;50.766;4.474;2023-06-14T08:25:30;32.10;70.90
13898;DHT22;7019;50.766;4.474;2023-06-14T08:27:58;32.10;70.70
13898;DHT22;7019;50.766;4.474;2023-06-14T08:30:26;31.90;70.70
13898;DHT22;7019;50.766;4.474;2023-06-14T08:32:53;31.50;69.10
13898;DHT22;7019;50.766;4.474;2023-06-14T08:35:22;31.40;69.90
13898;DHT22;7019;50.766;4.474;2023-06-14T08:37:49;31.30;69.10
13898;DHT22;7019;50.766;4.474;2023-06-14T08:40:21;31.30;70.90
13898;DHT22;7019;50.766;4.474;2023-06-14T08:42:50;31.30;70.40
13898;DHT22;7019;50.766;4.474;2023-06-14T08:45:19;31.20;71.80
13898;DHT22;7019;50.766;4.474;2023-06-14T08:47:47;31.30;72.10
13898;DHT22;7019;50.766;4.474;2023-06-14T08:50:19;31.40;71.00
13898;DHT22;7019;50.766;4.474;2023-06-14T08:52:51;31.50;70.90
13898;DHT22;7019;50.766;4.474;2023-06-14T08:55:19;30.90;71.60
13898;DHT22;7019;50.766;4.474;2023-06-14T08:57:47;31.30;72.00
13898;DHT22;7019;50.766;4.474;2023-06-14T09:00:15;31.40;70.90
13898;DHT22;7019;50.766;4.474;2023-06-14T09:02:43;31.60;71.60
13898;DHT22;7019;50.766;4.474;2023-06-14T09:05:10;31.70;71.80
13898;DHT22;7019;50.766;4.474;2023-06-14T09:07:40;31.40;72.80
13898;DHT22;7019;50.766;4.474;2023-06-14T09:10:10;31.60;73.50
13898;DHT22;7019;50.766;4.474;2023-06-14T09:12:38;31.70;73.40
13898;DHT22;7019;50.766;4.474;2023-06-14T09:15:07;31.90;74.40
13898;DHT22;7019;50.766;4.474;2023-06-14T09:17:34;31.80;73.10
13898;DHT22;7019;50.766;4.474;2023-06-14T09:20:02;31.70;73.00
13898;DHT22;7019;50.766;4.474;2023-06-14T09:22:35;31.50;72.80
13898;DHT22;7019;50.766;4.474;2023-06-14T09:25:02;31.50;72.80
13898;DHT22;7019;50.766;4.474;2023-06-14T09:27:31;31.30;72.70
13898;DHT22;7019;50.766;4.474;2023-06-14T09:29:58;31.30;74.00
13898;DHT22;7019;50.766;4.474;2023-06-14T09:32:26;31.10;73.00
13898;DHT22;7019;50.766;4.474;2023-06-14T09:34:53;31.20;74.40
13898;DHT22;7019;50.766;4.474;2023-06-14T09:37:29;30.50;74.10
13898;DHT22;7019;50.766;4.474;2023-06-14T09:39:56;30.80;73.60
13898;DHT22;7019;50.766;4.474;2023-06-14T09:42:24;30.90;71.80
13898;DHT22;7019;50.766;4.474;2023-06-14T09:44:56;30.60;70.20
13898;DHT22;7019;50.766;4.474;2023-06-14T09:47:24;30.70;71.60
13898;DHT22;7019;50.766;4.474;2023-06-14T09:49:51;30.60;70.70
13898;DHT22;7019;50.766;4.474;2023-06-14T09:52:21;30.70;69.90
13898;DHT22;7019;50.766;4.474;2023-06-14T09:54:49;30.80;71.60
13898;DHT22;7019;50.766;4.474;2023-06-14T09:57:20;30.80;70.50
13898;DHT22;7019;50.766;4.474;2023-06-14T09:59:48;30.70;70.80
13898;DHT22;7019;50.766;4.474;2023-06-14T10:02:24;30.60;71.30
13898;DHT22;7019;50.766;4.474;2023-06-14T10:04:57;30.60;73.20
13898;DHT22;7019;50.766;4.474;2023-06-14T10:07:26;30.80;73.00
13898;DHT22;7019;50.766;4.474;2023-06-14T10:09:56;30.80;70.20
13898;DHT22;7019;50.766;4.474;2023-06-14T10:12:24;31.00;70.00
13898;DHT22;7019;50.766;4.474;2023-06-14T10:14:51;31.20;68.80
13898;DHT22;7019;50.766;4.474;2023-06-14T10:17:27;30.80;70.20
13898;DHT22;7019;50.766;4.474;2023-06-14T10:20:18;30.80;67.40
13898;DHT22;7019;50.766;4.474;2023-06-14T10:22:49;30.80;69.30
13898;DHT22;7019;50.766;4.474;2023-06-14T10:25:27;30.90;69.00
13898;DHT22;7019;50.766;4.474;2023-06-14T10:28:03;31.30;70.30
13898;DHT22;7019;50.766;4.474;2023-06-14T10:30:31;30.90;66.70
13898;DHT22;7019;50.766;4.474;2023-06-14T10:33:07;30.40;70.70
13898;DHT22;7019;50.766;4.474;2023-06-14T10:35:35;30.40;69.50
13898;DHT22;7019;50.766;4.474;2023-06-14T10:38:09;30.40;69.20
13898;DHT22;7019;50.766;4.474;2023-06-14T10:40:36;30.30;70.40
13898;DHT22;7019;50.766;4.474;2023-06-14T10:43:21;29.90;68.50
13898;DHT22;7019;50.766;4.474;2023-06-14T10:46:17;29.60;68.20
13898;DHT22;7019;50.766;4.474;2023-06-14T10:48:45;29.40;70.00
13898;DHT22;7019;50.766;4.474;2023-06-14T10:51:19;29.60;69.50
13898;DHT22;7019;50.766;4.474;2023-06-14T10:53:47;29.80;68.50
13898;DHT22;7019;50.766;4.474;2023-06-14T10:56:28;29.80;68.80
13898;DHT22;7019;50.766;4.474;2023-06-14T10:58:56;29.80;68.00
13898;DHT22;7019;50.766;4.474;2023-06-14T11:01:34;29.40;68.70
13898;DHT22;7019;50.766;4.474;2023-06-14T11:04:12;29.60;68.70
13898;DHT22;7019;50.766;4.474;2023-06-14T11:06:50;29.80;65.40
13898;DHT22;7019;50.766;4.474;2023-06-14T11:09:38;30.50;67.30
13898;DHT22;7019;50.766;4.474;2023-06-14T11:12:10;30.80;67.00
13898;DHT22;7019;50.766;4.474;2023-06-14T11:14:38;30.90;64.50
13898;DHT22;7019;50.766;4.474;2023-06-14T11:17:05;30.80;64.60
13898;DHT22;7019;50.766;4.474;2023-06-14T11:19:34;30.60;64.20
13898;DHT22;7019;50.766;4.474;2023-06-14T11:22:01;30.30;64.90
13898;DHT22;7019;50.766;4.474;2023-06-14T11:24:28;30.00;65.80
13898;DHT22;7019;50.766;4.474;2023-06-14T11:26:56;29.80;66.40
13898;DHT22;7019;50.766;4.474;2023-06-14T11:29:23;29.60;69.10
13898;DHT22;7019;50.766;4.474;2023-06-14T11:31:51;29.70;69.40
13898;DHT22;7019;50.766;4.474;2023-06-14T11:34:18;29.70;68.50
13898;DHT22;7019;50.766;4.474;2023-06-14T11:36:47;29.90;67.60
13898;DHT22;7019;50.766;4.474;2023-06-14T11:39:14;29.60;66.60
13898;DHT22;7019;50.766;4.474;2023-06-14T11:41:43;30.10;65.80
13898;DHT22;7019;50.766;4.474;2023-06-14T11:44:11;30.10;67.70
13898;DHT22;7019;50.766;4.474;2023-06-14T11:46:38;29.80;66.90
13898;DHT22;7019;50.766;4.474;2023-06-14T11:49:07;29.70;67.60
13898;DHT22;7019;50.766;4.474;2023-06-14T11:51:35;29.70;67.60
13898;DHT22;7019;50.766;4.474;2023-06-14T11:54:05;30.00;67.00
13898;DHT22;7019;50.766;4.474;2023-06-14T11:56:33;30.10;65.10
13898;DHT22;7019;50.766;4.474;2023-06-14T11:59:03;29.70;66.20
13898;DHT22;7019;50.766;4.474;2023-06-14T12:01:31;29.60;67.20
13898;DHT22;7019;50.766;4.474;2023-06-14T12:03:59;29.90;66.00
13898;DHT22;7019;50.766;4.474;2023-06-14T12:06:27;30.20;66.30
13898;DHT22;7019;50.766;4.474;2023-06-14T12:08:58;30.00;67.10
13898;DHT22;7019;50.766;4.474;2023-06-14T12:11:32;30.30;65.60
13898;DHT22;7019;50.766;4.474;2023-06-14T12:14:00;30.50;65.10
13898;DHT22;7019;50.766;4.474;2023-06-14T12:16:32;30.90;64.30
13898;DHT22;7019;50.766;4.474;2023-06-14T12:19:17;30.60;64.40
13898;DHT22;7019;50.766;4.474;2023-06-14T12:21:46;30.20;65.20
13898;DHT22;7019;50.766;4.474;2023-06-14T12:24:15;29.90;64.10
13898;DHT22;7019;50.766;4.474;2023-06-14T12:26:43;29.80;64.00
13898;DHT22;7019;50.766;4.474;2023-06-14T12:29:10;30.00;63.00
13898;DHT22;7019;50.766;4.474;2023-06-14T12:31:38;29.80;64.40
13898;DHT22;7019;50.766;4.474;2023-06-14T12:34:05;29.70;64.20
13898;DHT22;7019;50.766;4.474;2023-06-14T12:36:32;30.00;63.30
13898;DHT22;7019;50.766;4.474;2023-06-14T12:39:01;29.90;66.00
13898;DHT22;7019;50.766;4.474;2023-06-14T12:41:28;29.90;65.10
13898;DHT22;7019;50.766;4.474;2023-06-14T12:43:56;29.80;65.20
13898;DHT22;7019;50.766;4.474;2023-06-14T12:46:25;30.10;64.90
13898;DHT22;7019;50.766;4.474;2023-06-14T12:48:52;30.50;63.30
13898;DHT22;7019;50.766;4.474;2023-06-14T12:51:19;30.10;65.50
13898;DHT22;7019;50.766;4.474;2023-06-14T12:53:46;29.90;65.60
13898;DHT22;7019;50.766;4.474;2023-06-14T12:56:14;29.30;66.90
13898;DHT22;7019;50.766;4.474;2023-06-14T12:58:41;29.40;67.40
13898;DHT22;7019;50.766;4.474;2023-06-14T13:01:10;29.90;66.90
13898;DHT22;7019;50.766;4.474;2023-06-14T13:03:37;29.80;66.60
13898;DHT22;7019;50.766;4.474;2023-06-14T13:06:04;29.40;66.30
13898;DHT22;7019;50.766;4.474;2023-06-14T13:08:31;29.30;66.00
13898;DHT22;7019;50.766;4.474;2023-06-14T13:10:59;29.40;64.00
13898;DHT22;7019;50.766;4.474;2023-06-14T13:13:26;29.30;66.80
13898;DHT22;7019;50.766;4.474;2023-06-14T13:15:53;29.60;65.10
13898;DHT22;7019;50.766;4.474;2023-06-14T13:18:21;29.80;63.50
13898;DHT22;7019;50.766;4.474;2023-06-14T13:20:48;29.70;64.20
13898;DHT22;7019;50.766;4.474;2023-06-14T13:23:15;29.60;65.30
13898;DHT22;7019;50.766;4.474;2023-06-14T13:25:43;29.80;64.60
13898;DHT22;7019;50.766;4.474;2023-06-14T13:28:10;29.20;64.40
13898;DHT22;7019;50.766;4.474;2023-06-14T13:30:37;29.00;65.60
13898;DHT22;7019;50.766;4.474;2023-06-14T13:33:04;29.10;66.60
13898;DHT22;7019;50.766;4.474;2023-06-14T13:35:32;29.50;65.10
13898;DHT22;7019;50.766;4.474;2023-06-14T13:37:59;29.20;65.90
13898;DHT22;7019;50.766;4.474;2023-06-14T13:40:26;29.40;64.10
13898;DHT22;7019;50.766;4.474;2023-06-14T13:42:53;29.70;62.60
13898;DHT22;7019;50.766;4.474;2023-06-14T13:45:20;29.90;62.40
13898;DHT22;7019;50.766;4.474;2023-06-14T13:47:48;30.10;63.20
13898;DHT22;7019;50.766;4.474;2023-06-14T13:50:15;30.30;63.00
13898;DHT22;7019;50.766;4.474;2023-06-14T13:52:44;30.40;62.70
13898;DHT22;7019;50.766;4.474;2023-06-14T13:55:12;30.40;63.50
13898;DHT22;7019;50.766;4.474;2023-06-14T13:57:39;30.30;61.60
13898;DHT22;7019;50.766;4.474;2023-06-14T14:00:07;29.70;63.50
13898;DHT22;7019;50.766;4.474;2023-06-14T14:02:35;29.30;62.80
13898;DHT22;7019;50.766;4.474;2023-06-14T14:05:02;29.30;65.00
13898;DHT22;7019;50.766;4.474;2023-06-14T14:07:29;29.50;63.30
13898;DHT22;7019;50.766;4.474;2023-06-14T14:09:57;29.80;63.10
13898;DHT22;7019;50.766;4.474;2023-06-14T14:12:25;30.00;62.80
13898;DHT22;7019;50.766;4.474;2023-06-14T14:14:53;29.80;62.10
13898;DHT22;7019;50.766;4.474;2023-06-14T14:17:20;29.10;62.80
13898;DHT22;7019;50.766;4.474;2023-06-14T14:19:48;28.60;63.90
13898;DHT22;7019;50.766;4.474;2023-06-14T14:22:15;28.30;65.30
13898;DHT22;7019;50.766;4.474;2023-06-14T14:24:42;28.10;65.10
13898;DHT22;7019;50.766;4.474;2023-06-14T14:27:11;27.80;65.50
13898;DHT22;7019;50.766;4.474;2023-06-14T14:29:38;27.80;67.30
13898;DHT22;7019;50.766;4.474;2023-06-14T14:32:06;27.80;67.00
13898;DHT22;7019;50.766;4.474;2023-06-14T14:34:36;27.70;64.10
13898;DHT22;7019;50.766;4.474;2023-06-14T14:37:03;27.50;64.80
13898;DHT22;7019;50.766;4.474;2023-06-14T14:39:30;27.40;63.70
13898;DHT22;7019;50.766;4.474;2023-06-14T14:41:58;27.50;64.50
13898;DHT22;7019;50.766;4.474;2023-06-14T14:44:26;28.10;67.80
13898;DHT22;7019;50.766;4.474;2023-06-14T14:46:53;28.50;62.40
13898;DHT22;7019;50.766;4.474;2023-06-14T14:49:21;28.80;63.50
13898;DHT22;7019;50.766;4.474;2023-06-14T14:51:48;28.40;63.00
13898;DHT22;7019;50.766;4.474;2023-06-14T14:54:15;28.10;62.30
13898;DHT22;7019;50.766;4.474;2023-06-14T14:56:42;28.20;62.10
13898;DHT22;7019;50.766;4.474;2023-06-14T14:59:10;28.60;62.00
13898;DHT22;7019;50.766;4.474;2023-06-14T15:01:38;28.30;61.50
13898;DHT22;7019;50.766;4.474;2023-06-14T15:04:05;28.30;60.80
13898;DHT22;7019;50.766;4.474;2023-06-14T15:06:32;28.30;61.30
13898;DHT22;7019;50.766;4.474;2023-06-14T15:09:01;28.60;61.50
13898;DHT22;7019;50.766;4.474;2023-06-14T15:11:28;28.30;62.70
13898;DHT22;7019;50.766;4.474;2023-06-14T15:13:55;28.70;62.00
13898;DHT22;7019;50.766;4.474;2023-06-14T15:16:22;28.70;60.20
13898;DHT22;7019;50.766;4.474;2023-06-14T15:18:51;28.90;61.00
13898;DHT22;7019;50.766;4.474;2023-06-14T15:21:18;28.60;60.80
13898;DHT22;7019;50.766;4.474;2023-06-14T15:23:45;28.50;60.70
13898;DHT22;7019;50.766;4.474;2023-06-14T15:26:13;28.10;60.20
13898;DHT22;7019;50.766;4.474;2023-06-14T15:28:40;28.10;62.10
13898;DHT22;7019;50.766;4.474;2023-06-14T15:31:07;28.40;61.70
13898;DHT22;7019;50.766;4.474;2023-06-14T15:33:34;28.70;62.30
13898;DHT22;7019;50.766;4.474;2023-06-14T15:36:02;28.90;62.70
13898;DHT22;7019;50.766;4.474;2023-06-14T15:38:30;28.80;60.30
13898;DHT22;7019;50.766;4.474;2023-06-14T15:40:58;28.90;62.50
13898;DHT22;7019;50.766;4.474;2023-06-14T15:43:25;29.00;61.50
13898;DHT22;7019;50.766;4.474;2023-06-14T15:45:52;28.80;60.50
13898;DHT22;7019;50.766;4.474;2023-06-14T15:48:19;28.70;60.60
13898;DHT22;7019;50.766;4.474;2023-06-14T15:50:46;28.60;61.30
13898;DHT22;7019;50.766;4.474;2023-06-14T15:53:15;28.70;61.50